Terminal Aerodrome Forecast
Issued by NWS Sterling, VA

Current Version | Previous Version | Graphics & Text | Print | Product List | Glossary On
Versions: 1 2 3 4 5 6 7 8 9 10 11 12 13 14 15 16 17 18 19
000
FTUS41 KLWX 261725
TAFDCA
TAF
KDCA 261725Z 2618/2718 19007KT P6SM SCT090
     FM262000 19008KT P6SM BKN080
     FM262200 17006KT P6SM VCTS BKN060CB
     FM270100 18005KT P6SM BKN060
     FM271400 21004KT P6SM SCT110=

USA.gov is the U.S. government's official web portal to all federal, state and local government web resources and services.